sensor_id;sensor_type;location;lat;lon;timestamp;temperature;humidity
40868;DHT22;26586;50.708;22.412;2023-03-21T00:01:31;17.90;53.00
40868;DHT22;26586;50.708;22.412;2023-03-21T00:03:58;17.90;53.00
40868;DHT22;26586;50.708;22.412;2023-03-21T00:06:24;17.80;53.00
40868;DHT22;26586;50.708;22.412;2023-03-21T00:08:52;17.90;52.90
40868;DHT22;26586;50.708;22.412;2023-03-21T00:11:18;17.80;53.10
40868;DHT22;26586;50.708;22.412;2023-03-21T00:13:45;17.80;53.20
40868;DHT22;26586;50.708;22.412;2023-03-21T00:16:13;17.80;53.40
40868;DHT22;26586;50.708;22.412;2023-03-21T00:18:43;17.80;53.80
40868;DHT22;26586;50.708;22.412;2023-03-21T00:21:16;17.80;54.00
40868;DHT22;26586;50.708;22.412;2023-03-21T00:23:44;17.80;53.90
40868;DHT22;26586;50.708;22.412;2023-03-21T00:26:12;17.80;53.80
40868;DHT22;26586;50.708;22.412;2023-03-21T00:28:40;17.80;53.70
40868;DHT22;26586;50.708;22.412;2023-03-21T00:31:07;17.80;53.60
40868;DHT22;26586;50.708;22.412;2023-03-21T00:33:34;17.80;53.40
40868;DHT22;26586;50.708;22.412;2023-03-21T00:36:01;17.80;53.40
40868;DHT22;26586;50.708;22.412;2023-03-21T00:38:27;17.70;53.40
40868;DHT22;26586;50.708;22.412;2023-03-21T00:40:53;17.70;53.60
40868;DHT22;26586;50.708;22.412;2023-03-21T00:43:20;17.70;53.50
40868;DHT22;26586;50.708;22.412;2023-03-21T00:45:56;17.70;53.50
40868;DHT22;26586;50.708;22.412;2023-03-21T00:48:26;17.70;53.80
40868;DHT22;26586;50.708;22.412;2023-03-21T00:50:54;17.70;53.80
40868;DHT22;26586;50.708;22.412;2023-03-21T00:53:22;17.70;53.90
40868;DHT22;26586;50.708;22.412;2023-03-21T00:55:48;17.70;54.30
40868;DHT22;26586;50.708;22.412;2023-03-21T00:58:15;17.70;54.30
40868;DHT22;26586;50.708;22.412;2023-03-21T01:00:42;17.70;54.50
40868;DHT22;26586;50.708;22.412;2023-03-21T01:03:10;17.70;54.20
40868;DHT22;26586;50.708;22.412;2023-03-21T01:05:40;17.70;54.80
40868;DHT22;26586;50.708;22.412;2023-03-21T01:08:25;17.70;54.90
40868;DHT22;26586;50.708;22.412;2023-03-21T01:10:53;17.60;55.00
40868;DHT22;26586;50.708;22.412;2023-03-21T01:13:21;17.60;55.00
40868;DHT22;26586;50.708;22.412;2023-03-21T01:15:52;17.60;55.30
40868;DHT22;26586;50.708;22.412;2023-03-21T01:18:21;17.60;55.50
40868;DHT22;26586;50.708;22.412;2023-03-21T01:20:50;17.60;55.70
40868;DHT22;26586;50.708;22.412;2023-03-21T01:23:16;17.60;55.70
40868;DHT22;26586;50.708;22.412;2023-03-21T01:25:42;17.60;55.80
40868;DHT22;26586;50.708;22.412;2023-03-21T01:28:09;17.60;56.10
40868;DHT22;26586;50.708;22.412;2023-03-21T01:30:35;17.60;56.00
40868;DHT22;26586;50.708;22.412;2023-03-21T01:33:02;17.60;56.10
40868;DHT22;26586;50.708;22.412;2023-03-21T01:35:28;17.60;56.10
40868;DHT22;26586;50.708;22.412;2023-03-21T01:37:54;17.60;56.10
40868;DHT22;26586;50.708;22.412;2023-03-21T01:40:23;17.60;56.10
40868;DHT22;26586;50.708;22.412;2023-03-21T01:42:50;17.60;56.20
40868;DHT22;26586;50.708;22.412;2023-03-21T01:48:22;17.60;56.40
40868;DHT22;26586;50.708;22.412;2023-03-21T01:50:49;17.50;56.30
40868;DHT22;26586;50.708;22.412;2023-03-21T01:53:18;17.60;56.40
40868;DHT22;26586;50.708;22.412;2023-03-21T01:55:46;17.50;56.70
40868;DHT22;26586;50.708;22.412;2023-03-21T01:58:13;17.50;56.90
40868;DHT22;26586;50.708;22.412;2023-03-21T02:00:45;17.50;57.20
40868;DHT22;26586;50.708;22.412;2023-03-21T02:03:12;17.50;57.40
40868;DHT22;26586;50.708;22.412;2023-03-21T02:06:01;17.60;57.60
40868;DHT22;26586;50.708;22.412;2023-03-21T02:08:32;17.50;57.60
40868;DHT22;26586;50.708;22.412;2023-03-21T02:10:58;17.50;57.70
40868;DHT22;26586;50.708;22.412;2023-03-21T02:13:25;17.50;57.70
40868;DHT22;26586;50.708;22.412;2023-03-21T02:15:59;17.50;57.80
40868;DHT22;26586;50.708;22.412;2023-03-21T02:21:27;17.50;57.60
40868;DHT22;26586;50.708;22.412;2023-03-21T02:29:53;17.50;57.40
40868;DHT22;26586;50.708;22.412;2023-03-21T02:38:13;17.50;57.90
40868;DHT22;26586;50.708;22.412;2023-03-21T02:40:52;17.50;57.70
40868;DHT22;26586;50.708;22.412;2023-03-21T02:47:04;17.50;57.60
40868;DHT22;26586;50.708;22.412;2023-03-21T02:49:20;17.50;57.30
40868;DHT22;26586;50.708;22.412;2023-03-21T02:51:49;17.50;57.20
40868;DHT22;26586;50.708;22.412;2023-03-21T02:54:19;17.50;57.00
40868;DHT22;26586;50.708;22.412;2023-03-21T02:56:48;17.50;57.00
40868;DHT22;26586;50.708;22.412;2023-03-21T02:59:15;17.40;57.50
40868;DHT22;26586;50.708;22.412;2023-03-21T03:01:43;17.40;57.80
40868;DHT22;26586;50.708;22.412;2023-03-21T03:04:20;17.50;57.90
40868;DHT22;26586;50.708;22.412;2023-03-21T03:12:44;17.40;58.30
40868;DHT22;26586;50.708;22.412;2023-03-21T03:18:15;17.40;58.40
40868;DHT22;26586;50.708;22.412;2023-03-21T03:23:17;17.40;58.30
40868;DHT22;26586;50.708;22.412;2023-03-21T03:25:53;17.40;58.40
40868;DHT22;26586;50.708;22.412;2023-03-21T03:28:26;17.40;58.40
40868;DHT22;26586;50.708;22.412;2023-03-21T03:30:55;17.40;58.40
40868;DHT22;26586;50.708;22.412;2023-03-21T03:33:24;17.40;58.50
40868;DHT22;26586;50.708;22.412;2023-03-21T03:35:53;17.40;58.80
40868;DHT22;26586;50.708;22.412;2023-03-21T03:38:21;17.40;58.80
40868;DHT22;26586;50.708;22.412;2023-03-21T03:40:53;17.40;58.90
40868;DHT22;26586;50.708;22.412;2023-03-21T03:43:34;17.30;58.60
40868;DHT22;26586;50.708;22.412;2023-03-21T03:46:16;17.40;58.50
40868;DHT22;26586;50.708;22.412;2023-03-21T03:49:08;17.30;58.30
40868;DHT22;26586;50.708;22.412;2023-03-21T03:51:54;17.30;58.50
40868;DHT22;26586;50.708;22.412;2023-03-21T03:54:35;17.40;58.50
40868;DHT22;26586;50.708;22.412;2023-03-21T03:57:04;17.40;58.50
40868;DHT22;26586;50.708;22.412;2023-03-21T03:59:34;17.30;58.60
40868;DHT22;26586;50.708;22.412;2023-03-21T04:02:01;17.30;58.60
40868;DHT22;26586;50.708;22.412;2023-03-21T04:04:28;17.30;58.70
40868;DHT22;26586;50.708;22.412;2023-03-21T04:06:54;17.30;58.70
40868;DHT22;26586;50.708;22.412;2023-03-21T04:09:21;17.30;57.80
40868;DHT22;26586;50.708;22.412;2023-03-21T04:11:47;17.30;58.30
40868;DHT22;26586;50.708;22.412;2023-03-21T04:14:14;17.30;58.30
40868;DHT22;26586;50.708;22.412;2023-03-21T04:16:40;17.30;58.60
40868;DHT22;26586;50.708;22.412;2023-03-21T04:19:07;17.30;58.90
40868;DHT22;26586;50.708;22.412;2023-03-21T04:21:34;17.30;59.40
40868;DHT22;26586;50.708;22.412;2023-03-21T04:24:00;17.30;59.60
40868;DHT22;26586;50.708;22.412;2023-03-21T04:26:26;17.30;59.40
40868;DHT22;26586;50.708;22.412;2023-03-21T04:28:58;17.30;59.90
40868;DHT22;26586;50.708;22.412;2023-03-21T04:31:25;17.30;59.10
40868;DHT22;26586;50.708;22.412;2023-03-21T04:33:53;17.30;59.70
40868;DHT22;26586;50.708;22.412;2023-03-21T04:36:20;17.30;58.30
40868;DHT22;26586;50.708;22.412;2023-03-21T04:38:52;17.30;58.40
40868;DHT22;26586;50.708;22.412;2023-03-21T04:41:19;17.30;58.20
40868;DHT22;26586;50.708;22.412;2023-03-21T04:43:46;17.30;58.10
40868;DHT22;26586;50.708;22.412;2023-03-21T04:46:12;17.30;58.10
40868;DHT22;26586;50.708;22.412;2023-03-21T04:48:38;17.30;58.30
40868;DHT22;26586;50.708;22.412;2023-03-21T04:51:04;17.20;58.10
40868;DHT22;26586;50.708;22.412;2023-03-21T04:53:31;17.20;58.20
40868;DHT22;26586;50.708;22.412;2023-03-21T04:55:57;17.20;58.30
40868;DHT22;26586;50.708;22.412;2023-03-21T04:58:23;17.20;59.00
40868;DHT22;26586;50.708;22.412;2023-03-21T05:00:49;17.20;58.80
40868;DHT22;26586;50.708;22.412;2023-03-21T05:03:18;17.20;59.60
40868;DHT22;26586;50.708;22.412;2023-03-21T05:05:46;17.20;59.30
40868;DHT22;26586;50.708;22.412;2023-03-21T05:08:13;17.20;59.20
40868;DHT22;26586;50.708;22.412;2023-03-21T05:10:39;17.20;59.10
40868;DHT22;26586;50.708;22.412;2023-03-21T05:13:06;17.20;59.10
40868;DHT22;26586;50.708;22.412;2023-03-21T05:15:32;17.20;59.10
40868;DHT22;26586;50.708;22.412;2023-03-21T05:17:59;17.20;59.70
40868;DHT22;26586;50.708;22.412;2023-03-21T05:20:37;17.20;59.50
40868;DHT22;26586;50.708;22.412;2023-03-21T05:23:09;17.20;60.40
40868;DHT22;26586;50.708;22.412;2023-03-21T05:25:37;17.20;60.90
40868;DHT22;26586;50.708;22.412;2023-03-21T05:28:05;17.20;60.90
40868;DHT22;26586;50.708;22.412;2023-03-21T05:30:32;17.30;62.90
40868;DHT22;26586;50.708;22.412;2023-03-21T05:32:58;17.30;62.80
40868;DHT22;26586;50.708;22.412;2023-03-21T05:35:25;17.30;62.90
40868;DHT22;26586;50.708;22.412;2023-03-21T05:37:51;17.30;63.60
40868;DHT22;26586;50.708;22.412;2023-03-21T05:40:18;17.40;63.90
40868;DHT22;26586;50.708;22.412;2023-03-21T05:42:46;17.40;63.90
40868;DHT22;26586;50.708;22.412;2023-03-21T05:45:13;17.40;63.50
40868;DHT22;26586;50.708;22.412;2023-03-21T05:47:39;17.40;62.60
40868;DHT22;26586;50.708;22.412;2023-03-21T05:50:06;17.40;60.40
40868;DHT22;26586;50.708;22.412;2023-03-21T05:52:32;17.40;60.80
40868;DHT22;26586;50.708;22.412;2023-03-21T05:54:58;17.50;62.40
40868;DHT22;26586;50.708;22.412;2023-03-21T05:57:25;17.50;62.50
40868;DHT22;26586;50.708;22.412;2023-03-21T05:59:53;17.50;62.60
40868;DHT22;26586;50.708;22.412;2023-03-21T06:02:20;17.50;62.40
40868;DHT22;26586;50.708;22.412;2023-03-21T06:04:46;17.60;62.30
40868;DHT22;26586;50.708;22.412;2023-03-21T06:07:12;17.60;63.60
40868;DHT22;26586;50.708;22.412;2023-03-21T06:09:38;17.60;62.50
40868;DHT22;26586;50.708;22.412;2023-03-21T06:12:05;17.70;62.90
40868;DHT22;26586;50.708;22.412;2023-03-21T06:14:31;17.70;62.30
40868;DHT22;26586;50.708;22.412;2023-03-21T06:16:57;17.70;61.70
40868;DHT22;26586;50.708;22.412;2023-03-21T06:19:23;17.70;61.40
40868;DHT22;26586;50.708;22.412;2023-03-21T06:21:51;17.70;61.50
40868;DHT22;26586;50.708;22.412;2023-03-21T06:24:17;17.70;61.90
40868;DHT22;26586;50.708;22.412;2023-03-21T06:26:44;17.80;61.70
40868;DHT22;26586;50.708;22.412;2023-03-21T06:29:11;17.80;61.00
40868;DHT22;26586;50.708;22.412;2023-03-21T06:31:38;17.80;60.80
40868;DHT22;26586;50.708;22.412;2023-03-21T06:34:04;17.80;60.70
40868;DHT22;26586;50.708;22.412;2023-03-21T06:36:30;17.80;60.40
40868;DHT22;26586;50.708;22.412;2023-03-21T06:38:56;17.80;60.10
40868;DHT22;26586;50.708;22.412;2023-03-21T06:41:23;17.80;59.80
40868;DHT22;26586;50.708;22.412;2023-03-21T06:43:49;17.80;59.40
40868;DHT22;26586;50.708;22.412;2023-03-21T06:46:16;17.80;58.80
40868;DHT22;26586;50.708;22.412;2023-03-21T06:48:42;17.80;58.90
40868;DHT22;26586;50.708;22.412;2023-03-21T06:51:11;17.80;58.90
40868;DHT22;26586;50.708;22.412;2023-03-21T06:53:37;17.80;58.30
40868;DHT22;26586;50.708;22.412;2023-03-21T06:56:04;17.70;58.40
40868;DHT22;26586;50.708;22.412;2023-03-21T06:58:31;17.80;58.10
40868;DHT22;26586;50.708;22.412;2023-03-21T07:00:58;17.80;57.50
40868;DHT22;26586;50.708;22.412;2023-03-21T07:03:25;17.80;57.70
40868;DHT22;26586;50.708;22.412;2023-03-21T07:05:52;17.80;58.70
40868;DHT22;26586;50.708;22.412;2023-03-21T07:08:18;17.80;59.10
40868;DHT22;26586;50.708;22.412;2023-03-21T07:10:44;17.80;58.50
40868;DHT22;26586;50.708;22.412;2023-03-21T07:13:12;17.80;60.30
40868;DHT22;26586;50.708;22.412;2023-03-21T07:15:38;17.80;59.50
40868;DHT22;26586;50.708;22.412;2023-03-21T07:18:06;17.80;60.00
40868;DHT22;26586;50.708;22.412;2023-03-21T07:20:33;17.80;59.90
40868;DHT22;26586;50.708;22.412;2023-03-21T07:22:59;17.90;59.30
40868;DHT22;26586;50.708;22.412;2023-03-21T07:25:26;17.90;59.50
40868;DHT22;26586;50.708;22.412;2023-03-21T07:27:52;17.90;59.50
40868;DHT22;26586;50.708;22.412;2023-03-21T07:30:19;17.90;58.30
40868;DHT22;26586;50.708;22.412;2023-03-21T07:32:45;17.90;58.20
40868;DHT22;26586;50.708;22.412;2023-03-21T07:35:14;17.90;57.50
40868;DHT22;26586;50.708;22.412;2023-03-21T07:37:40;18.00;57.60
40868;DHT22;26586;50.708;22.412;2023-03-21T07:40:08;17.90;58.80
40868;DHT22;26586;50.708;22.412;2023-03-21T07:42:35;18.00;58.30
40868;DHT22;26586;50.708;22.412;2023-03-21T07:45:03;17.90;58.40
40868;DHT22;26586;50.708;22.412;2023-03-21T07:47:30;18.00;57.80
40868;DHT22;26586;50.708;22.412;2023-03-21T07:49:57;18.00;57.10
40868;DHT22;26586;50.708;22.412;2023-03-21T07:52:23;18.00;57.80
40868;DHT22;26586;50.708;22.412;2023-03-21T07:54:50;17.90;57.40
40868;DHT22;26586;50.708;22.412;2023-03-21T07:57:16;18.00;57.60
40868;DHT22;26586;50.708;22.412;2023-03-21T07:59:43;18.00;57.60
40868;DHT22;26586;50.708;22.412;2023-03-21T08:02:13;18.00;58.40
40868;DHT22;26586;50.708;22.412;2023-03-21T08:04:39;18.10;57.60
40868;DHT22;26586;50.708;22.412;2023-03-21T08:07:05;18.00;57.40
40868;DHT22;26586;50.708;22.412;2023-03-21T08:09:32;18.00;56.60
40868;DHT22;26586;50.708;22.412;2023-03-21T08:11:58;18.00;56.00
40868;DHT22;26586;50.708;22.412;2023-03-21T08:14:24;18.00;56.70
40868;DHT22;26586;50.708;22.412;2023-03-21T08:16:50;18.00;56.30
40868;DHT22;26586;50.708;22.412;2023-03-21T08:19:17;18.00;55.00
40868;DHT22;26586;50.708;22.412;2023-03-21T08:21:45;18.00;55.20
40868;DHT22;26586;50.708;22.412;2023-03-21T08:24:12;18.00;56.50
40868;DHT22;26586;50.708;22.412;2023-03-21T08:26:38;18.00;55.20
40868;DHT22;26586;50.708;22.412;2023-03-21T08:29:04;18.00;56.10
40868;DHT22;26586;50.708;22.412;2023-03-21T08:31:31;18.00;56.10
40868;DHT22;26586;50.708;22.412;2023-03-21T08:33:57;18.00;56.20
40868;DHT22;26586;50.708;22.412;2023-03-21T08:36:23;18.00;56.90
40868;DHT22;26586;50.708;22.412;2023-03-21T08:38:50;18.00;56.60
40868;DHT22;26586;50.708;22.412;2023-03-21T08:41:21;18.00;57.50
40868;DHT22;26586;50.708;22.412;2023-03-21T08:43:49;18.00;57.20
40868;DHT22;26586;50.708;22.412;2023-03-21T08:46:15;18.00;57.90
40868;DHT22;26586;50.708;22.412;2023-03-21T08:48:42;18.00;57.80
40868;DHT22;26586;50.708;22.412;2023-03-21T08:51:08;18.00;58.30
40868;DHT22;26586;50.708;22.412;2023-03-21T08:53:34;18.10;57.80
40868;DHT22;26586;50.708;22.412;2023-03-21T08:56:00;18.00;56.90
40868;DHT22;26586;50.708;22.412;2023-03-21T08:58:27;18.00;57.20
40868;DHT22;26586;50.708;22.412;2023-03-21T09:00:53;18.10;56.00
40868;DHT22;26586;50.708;22.412;2023-03-21T09:03:19;18.10;56.20
40868;DHT22;26586;50.708;22.412;2023-03-21T09:05:45;18.10;56.40
40868;DHT22;26586;50.708;22.412;2023-03-21T09:08:12;18.10;56.70
40868;DHT22;26586;50.708;22.412;2023-03-21T09:10:38;18.10;57.30
40868;DHT22;26586;50.708;22.412;2023-03-21T09:13:05;18.10;57.10
40868;DHT22;26586;50.708;22.412;2023-03-21T09:15:31;18.10;58.50
40868;DHT22;26586;50.708;22.412;2023-03-21T09:17:58;18.10;57.90
40868;DHT22;26586;50.708;22.412;2023-03-21T09:20:38;18.10;57.20
40868;DHT22;26586;50.708;22.412;2023-03-21T09:23:05;18.10;55.40
40868;DHT22;26586;50.708;22.412;2023-03-21T09:25:32;18.10;58.10
40868;DHT22;26586;50.708;22.412;2023-03-21T09:27:59;18.10;57.20
40868;DHT22;26586;50.708;22.412;2023-03-21T09:30:25;18.10;56.00
40868;DHT22;26586;50.708;22.412;2023-03-21T09:32:52;18.10;55.80
40868;DHT22;26586;50.708;22.412;2023-03-21T09:35:20;18.10;56.30
40868;DHT22;26586;50.708;22.412;2023-03-21T09:37:48;18.10;57.20
40868;DHT22;26586;50.708;22.412;2023-03-21T09:45:33;18.10;55.40
40868;DHT22;26586;50.708;22.412;2023-03-21T09:48:04;18.10;56.10
40868;DHT22;26586;50.708;22.412;2023-03-21T09:50:36;18.10;55.30
40868;DHT22;26586;50.708;22.412;2023-03-21T09:53:22;18.10;55.30
40868;DHT22;26586;50.708;22.412;2023-03-21T09:55:50;18.10;55.40
40868;DHT22;26586;50.708;22.412;2023-03-21T10:00:54;18.10;56.40
40868;DHT22;26586;50.708;22.412;2023-03-21T10:03:25;18.10;55.60
40868;DHT22;26586;50.708;22.412;2023-03-21T10:05:55;18.10;55.00
40868;DHT22;26586;50.708;22.412;2023-03-21T10:08:34;18.00;55.20
40868;DHT22;26586;50.708;22.412;2023-03-21T10:11:16;18.00;55.40
40868;DHT22;26586;50.708;22.412;2023-03-21T10:16:31;18.00;55.50
40868;DHT22;26586;50.708;22.412;2023-03-21T10:19:03;18.00;55.20
40868;DHT22;26586;50.708;22.412;2023-03-21T10:21:30;18.00;55.40
40868;DHT22;26586;50.708;22.412;2023-03-21T10:23:58;18.00;55.00
40868;DHT22;26586;50.708;22.412;2023-03-21T10:26:27;18.00;55.80
40868;DHT22;26586;50.708;22.412;2023-03-21T10:28:58;18.00;56.50
40868;DHT22;26586;50.708;22.412;2023-03-21T10:31:28;18.00;57.10
40868;DHT22;26586;50.708;22.412;2023-03-21T10:33:57;18.00;55.80
40868;DHT22;26586;50.708;22.412;2023-03-21T10:36:28;18.00;56.60
40868;DHT22;26586;50.708;22.412;2023-03-21T10:39:02;18.00;55.40
40868;DHT22;26586;50.708;22.412;2023-03-21T10:41:29;18.00;55.00
40868;DHT22;26586;50.708;22.412;2023-03-21T10:44:14;18.00;55.40
40868;DHT22;26586;50.708;22.412;2023-03-21T10:46:55;18.00;55.60
40868;DHT22;26586;50.708;22.412;2023-03-21T10:49:22;18.00;56.10
40868;DHT22;26586;50.708;22.412;2023-03-21T10:51:57;18.00;56.20
40868;DHT22;26586;50.708;22.412;2023-03-21T10:54:28;18.10;55.30
40868;DHT22;26586;50.708;22.412;2023-03-21T10:59:25;18.00;57.60
40868;DHT22;26586;50.708;22.412;2023-03-21T11:01:54;18.10;57.20
40868;DHT22;26586;50.708;22.412;2023-03-21T11:04:25;18.00;57.20
40868;DHT22;26586;50.708;22.412;2023-03-21T11:06:54;18.10;56.00
40868;DHT22;26586;50.708;22.412;2023-03-21T11:09:24;18.10;56.90
40868;DHT22;26586;50.708;22.412;2023-03-21T11:12:11;18.10;56.40
40868;DHT22;26586;50.708;22.412;2023-03-21T11:14:44;18.10;55.50
40868;DHT22;26586;50.708;22.412;2023-03-21T11:19:51;18.10;55.60
40868;DHT22;26586;50.708;22.412;2023-03-21T11:22:20;18.10;55.20
40868;DHT22;26586;50.708;22.412;2023-03-21T11:24:55;18.10;54.40
40868;DHT22;26586;50.708;22.412;2023-03-21T11:27:22;18.20;54.20
40868;DHT22;26586;50.708;22.412;2023-03-21T11:29:55;18.20;54.00
40868;DHT22;26586;50.708;22.412;2023-03-21T11:34:59;18.20;54.50
40868;DHT22;26586;50.708;22.412;2023-03-21T11:39:55;18.20;57.50
40868;DHT22;26586;50.708;22.412;2023-03-21T11:42:30;18.30;58.90
40868;DHT22;26586;50.708;22.412;2023-03-21T11:45:22;18.30;56.00
40868;DHT22;26586;50.708;22.412;2023-03-21T11:47:50;18.30;55.30
40868;DHT22;26586;50.708;22.412;2023-03-21T11:56:09;18.30;56.40
40868;DHT22;26586;50.708;22.412;2023-03-21T12:06:53;18.40;57.80
40868;DHT22;26586;50.708;22.412;2023-03-21T12:09:37;18.50;56.00
40868;DHT22;26586;50.708;22.412;2023-03-21T12:25:39;18.60;56.70
40868;DHT22;26586;50.708;22.412;2023-03-21T12:31:26;18.60;59.00
40868;DHT22;26586;50.708;22.412;2023-03-21T12:39:39;18.70;56.80
40868;DHT22;26586;50.708;22.412;2023-03-21T12:42:32;18.70;57.30
40868;DHT22;26586;50.708;22.412;2023-03-21T12:45:20;18.70;57.00
40868;DHT22;26586;50.708;22.412;2023-03-21T12:47:54;18.70;56.10
40868;DHT22;26586;50.708;22.412;2023-03-21T12:50:33;18.70;55.80
40868;DHT22;26586;50.708;22.412;2023-03-21T12:53:25;18.70;55.20
40868;DHT22;26586;50.708;22.412;2023-03-21T12:55:57;18.70;54.50
40868;DHT22;26586;50.708;22.412;2023-03-21T12:58:26;18.70;54.30
40868;DHT22;26586;50.708;22.412;2023-03-21T13:00:56;18.70;54.50
40868;DHT22;26586;50.708;22.412;2023-03-21T13:03:43;18.70;54.40
40868;DHT22;26586;50.708;22.412;2023-03-21T13:06:13;18.70;54.50
40868;DHT22;26586;50.708;22.412;2023-03-21T13:11:23;18.70;54.40
40868;DHT22;26586;50.708;22.412;2023-03-21T13:14:19;18.70;55.50
40868;DHT22;26586;50.708;22.412;2023-03-21T13:17:22;18.80;54.30
40868;DHT22;26586;50.708;22.412;2023-03-21T13:20:08;18.70;53.70
40868;DHT22;26586;50.708;22.412;2023-03-21T13:22:38;18.70;53.60
40868;DHT22;26586;50.708;22.412;2023-03-21T13:25:18;18.70;53.70
40868;DHT22;26586;50.708;22.412;2023-03-21T13:27:54;18.70;53.90
40868;DHT22;26586;50.708;22.412;2023-03-21T13:30:26;18.70;54.00
40868;DHT22;26586;50.708;22.412;2023-03-21T13:33:21;18.70;54.60
40868;DHT22;26586;50.708;22.412;2023-03-21T13:35:59;18.70;56.00
40868;DHT22;26586;50.708;22.412;2023-03-21T13:38:32;18.80;57.30
40868;DHT22;26586;50.708;22.412;2023-03-21T13:41:12;18.70;57.20
40868;DHT22;26586;50.708;22.412;2023-03-21T13:46:12;18.80;58.10
40868;DHT22;26586;50.708;22.412;2023-03-21T13:48:43;18.80;57.30
40868;DHT22;26586;50.708;22.412;2023-03-21T13:51:09;18.80;55.80
40868;DHT22;26586;50.708;22.412;2023-03-21T13:53:40;18.80;57.50
40868;DHT22;26586;50.708;22.412;2023-03-21T14:01:30;18.80;58.40
40868;DHT22;26586;50.708;22.412;2023-03-21T14:04:20;18.80;57.90
40868;DHT22;26586;50.708;22.412;2023-03-21T14:09:27;18.80;59.60
40868;DHT22;26586;50.708;22.412;2023-03-21T14:11:54;18.80;58.20
40868;DHT22;26586;50.708;22.412;2023-03-21T14:14:25;18.80;58.20
40868;DHT22;26586;50.708;22.412;2023-03-21T14:16:54;18.80;58.30
40868;DHT22;26586;50.708;22.412;2023-03-21T14:19:28;18.80;58.40
40868;DHT22;26586;50.708;22.412;2023-03-21T14:21:55;18.80;57.60
40868;DHT22;26586;50.708;22.412;2023-03-21T14:24:22;18.80;55.70
40868;DHT22;26586;50.708;22.412;2023-03-21T14:26:53;18.80;54.40
40868;DHT22;26586;50.708;22.412;2023-03-21T14:29:33;18.70;54.30
40868;DHT22;26586;50.708;22.412;2023-03-21T14:32:01;18.80;54.90
40868;DHT22;26586;50.708;22.412;2023-03-21T14:34:33;18.70;55.80
40868;DHT22;26586;50.708;22.412;2023-03-21T14:37:00;18.70;53.30
40868;DHT22;26586;50.708;22.412;2023-03-21T14:39:31;18.70;53.50
40868;DHT22;26586;50.708;22.412;2023-03-21T14:42:06;18.70;53.70
40868;DHT22;26586;50.708;22.412;2023-03-21T14:47:22;18.70;54.10
40868;DHT22;26586;50.708;22.412;2023-03-21T14:49:49;18.70;54.40
40868;DHT22;26586;50.708;22.412;2023-03-21T14:52:21;18.70;55.20
40868;DHT22;26586;50.708;22.412;2023-03-21T14:54:49;18.70;56.10
40868;DHT22;26586;50.708;22.412;2023-03-21T14:57:30;18.70;56.40
40868;DHT22;26586;50.708;22.412;2023-03-21T15:00:04;18.70;54.80
40868;DHT22;26586;50.708;22.412;2023-03-21T15:02:39;18.70;53.80
40868;DHT22;26586;50.708;22.412;2023-03-21T15:07:57;18.60;54.10
40868;DHT22;26586;50.708;22.412;2023-03-21T15:10:27;18.60;53.00
40868;DHT22;26586;50.708;22.412;2023-03-21T15:12:56;18.60;53.30
40868;DHT22;26586;50.708;22.412;2023-03-21T15:15:24;18.60;52.90
40868;DHT22;26586;50.708;22.412;2023-03-21T15:17:52;18.60;53.20
40868;DHT22;26586;50.708;22.412;2023-03-21T15:20:25;18.60;53.50
40868;DHT22;26586;50.708;22.412;2023-03-21T15:22:55;18.60;53.90
40868;DHT22;26586;50.708;22.412;2023-03-21T15:25:28;18.60;53.90
40868;DHT22;26586;50.708;22.412;2023-03-21T15:27:55;18.60;52.90
40868;DHT22;26586;50.708;22.412;2023-03-21T15:30:30;18.60;52.70
40868;DHT22;26586;50.708;22.412;2023-03-21T15:32:58;18.60;52.70
40868;DHT22;26586;50.708;22.412;2023-03-21T15:35:42;18.60;52.80
40868;DHT22;26586;50.708;22.412;2023-03-21T15:38:35;18.50;53.80
40868;DHT22;26586;50.708;22.412;2023-03-21T15:43:46;18.50;52.90
40868;DHT22;26586;50.708;22.412;2023-03-21T15:51:33;18.50;52.50
40868;DHT22;26586;50.708;22.412;2023-03-21T15:54:01;18.40;52.50
40868;DHT22;26586;50.708;22.412;2023-03-21T15:56:28;18.40;52.60
40868;DHT22;26586;50.708;22.412;2023-03-21T15:59:02;18.40;52.70
40868;DHT22;26586;50.708;22.412;2023-03-21T16:01:32;18.40;52.60
40868;DHT22;26586;50.708;22.412;2023-03-21T16:04:10;18.30;52.50
40868;DHT22;26586;50.708;22.412;2023-03-21T16:06:50;18.30;52.60
40868;DHT22;26586;50.708;22.412;2023-03-21T16:09:18;18.30;52.60
40868;DHT22;26586;50.708;22.412;2023-03-21T16:11:55;18.30;52.70
40868;DHT22;26586;50.708;22.412;2023-03-21T16:14:22;18.30;52.70
40868;DHT22;26586;50.708;22.412;2023-03-21T16:16:49;18.30;52.80
40868;DHT22;26586;50.708;22.412;2023-03-21T16:19:16;18.20;52.80
40868;DHT22;26586;50.708;22.412;2023-03-21T16:21:42;18.20;52.80
40868;DHT22;26586;50.708;22.412;2023-03-21T16:24:09;18.20;52.80
40868;DHT22;26586;50.708;22.412;2023-03-21T16:26:42;18.20;53.30
40868;DHT22;26586;50.708;22.412;2023-03-21T16:29:13;18.20;53.20
40868;DHT22;26586;50.708;22.412;2023-03-21T16:31:40;18.20;53.00
40868;DHT22;26586;50.708;22.412;2023-03-21T16:34:07;18.10;53.00
40868;DHT22;26586;50.708;22.412;2023-03-21T16:36:39;18.10;53.60
40868;DHT22;26586;50.708;22.412;2023-03-21T16:39:20;18.10;54.00
40868;DHT22;26586;50.708;22.412;2023-03-21T16:41:47;18.10;53.40
40868;DHT22;26586;50.708;22.412;2023-03-21T16:44:14;18.10;53.50
40868;DHT22;26586;50.708;22.412;2023-03-21T16:46:40;18.10;53.60
40868;DHT22;26586;50.708;22.412;2023-03-21T16:49:22;18.10;53.70
40868;DHT22;26586;50.708;22.412;2023-03-21T16:51:50;18.00;53.70
40868;DHT22;26586;50.708;22.412;2023-03-21T16:54:16;18.00;54.10
40868;DHT22;26586;50.708;22.412;2023-03-21T16:56:53;18.00;54.10
40868;DHT22;26586;50.708;22.412;2023-03-21T16:59:20;18.10;54.00
40868;DHT22;26586;50.708;22.412;2023-03-21T17:01:47;18.00;54.10
40868;DHT22;26586;50.708;22.412;2023-03-21T17:04:15;18.00;54.30
40868;DHT22;26586;50.708;22.412;2023-03-21T17:06:47;18.00;54.70
40868;DHT22;26586;50.708;22.412;2023-03-21T17:09:16;18.10;54.50
40868;DHT22;26586;50.708;22.412;2023-03-21T17:11:43;18.00;55.00
40868;DHT22;26586;50.708;22.412;2023-03-21T17:14:10;18.00;54.80
40868;DHT22;26586;50.708;22.412;2023-03-21T17:16:38;18.00;55.20
40868;DHT22;26586;50.708;22.412;2023-03-21T17:19:18;18.00;55.10
40868;DHT22;26586;50.708;22.412;2023-03-21T17:21:45;18.00;55.30
40868;DHT22;26586;50.708;22.412;2023-03-21T17:24:11;18.00;55.50
40868;DHT22;26586;50.708;22.412;2023-03-21T17:26:38;18.00;55.70
40868;DHT22;26586;50.708;22.412;2023-03-21T17:29:04;18.00;55.90